createdAt,value
2018-08-16T03:19:26.898Z,0.00
2018-08-16T03:39:48.871Z,4.00
2018-08-16T03:41:39.825Z,0.00
2018-08-16T03:44:22.723Z,4.00
2018-08-16T03:52:40.722Z,16.00
2018-08-16T04:02:30.432Z,68.00
2018-08-16T04:03:32.112Z,76.00
2018-08-16T04:04:41.523Z,84.00
2018-08-16T04:05:31.900Z,96.00
2018-08-16T04:06:35.561Z,104.00
2018-08-16T04:07:33.916Z,116.00
2018-08-16T04:08:33.081Z,124.00
2018-08-16T04:09:32.480Z,140.00
2018-08-16T04:10:32.218Z,152.00
2018-08-16T04:11:33.834Z,168.00
2018-08-16T04:13:33.534Z,200.00
2018-08-16T04:14:33.415Z,216.00
2018-08-16T04:15:32.638Z,236.00
2018-08-16T04:16:43.050Z,256.00
2018-08-16T04:17:34.240Z,276.00
2018-08-16T04:18:31.719Z,296.00
2018-08-16T04:19:30.744Z,316.00
2018-08-16T04:20:31.738Z,336.00
2018-08-16T04:21:31.550Z,364.00
2018-08-16T04:22:32.047Z,384.00
2018-08-16T04:23:32.906Z,412.00
2018-08-16T04:24:32.206Z,436.00
2018-08-16T04:25:32.783Z,460.00
2018-08-16T04:29:15.818Z,568.00
2018-08-16T04:30:15.789Z,596.00
2018-08-16T04:31:14.283Z,628.00
2018-08-16T04:32:14.032Z,656.00
2018-08-16T04:33:17.238Z,688.00
2018-08-16T04:43:51.659Z,1040.00
2018-08-16T04:57:31.343Z,1508.00
2018-08-16T04:58:35.020Z,1540.00
2018-08-16T04:59:32.071Z,1568.00
2018-08-16T05:00:32.163Z,1596.00
2018-08-16T05:01:33.534Z,1624.00
2018-08-16T05:02:40.490Z,1656.00
2018-08-16T05:03:46.150Z,1692.00
2018-08-16T05:04:32.438Z,1724.00
2018-08-16T05:05:33.493Z,1756.00
2018-08-16T05:06:32.742Z,1788.00
2018-08-16T05:07:35.643Z,1820.00
2018-08-16T05:08:41.143Z,1852.00
2018-08-16T05:17:18.072Z,2116.00
2018-08-16T05:18:18.643Z,2148.00
2018-08-16T05:19:18.706Z,2176.00
2018-08-16T05:20:17.336Z,2212.00
2018-08-16T05:21:18.157Z,2248.00
2018-08-16T05:22:19.105Z,2288.00
2018-08-16T05:23:18.534Z,2316.00
2018-08-16T05:24:19.071Z,2340.00
2018-08-16T05:25:19.534Z,2364.00
2018-08-16T05:26:21.934Z,2392.00
2018-08-16T05:27:18.229Z,2408.00
2018-08-16T05:28:16.927Z,2436.00
2018-08-16T05:29:17.153Z,2464.00
2018-08-16T05:30:17.182Z,2500.00
2018-08-16T05:31:17.359Z,2532.00
2018-08-16T05:32:17.433Z,2568.00
2018-08-16T05:33:17.570Z,2600.00
2018-08-16T05:34:17.784Z,2632.00
2018-08-16T05:35:18.042Z,2672.00
2018-08-16T05:36:18.169Z,2708.00
2018-08-16T05:37:18.442Z,2748.00
2018-08-16T05:38:18.553Z,2792.00
2018-08-16T05:39:18.738Z,2832.00
2018-08-16T05:40:18.917Z,2868.00
2018-08-16T05:41:19.071Z,2916.00
2018-08-16T05:42:19.289Z,2956.00
2018-08-16T05:43:19.368Z,2996.00
2018-08-16T05:44:19.729Z,3032.00
2018-08-16T05:45:19.634Z,3072.00
2018-08-16T05:46:20.062Z,3108.00
2018-08-16T05:47:20.020Z,3152.00
2018-08-16T05:48:20.211Z,3196.00
2018-08-16T05:49:20.447Z,3240.00
2018-08-16T05:50:20.620Z,3284.00
2018-08-16T05:51:20.779Z,3352.00
2018-08-16T05:52:20.926Z,3396.00
2018-08-16T05:53:21.324Z,3428.00
2018-08-16T05:54:21.250Z,3452.00
2018-08-16T05:55:21.652Z,3476.00
2018-08-16T05:56:21.728Z,3504.00
2018-08-16T05:57:22.069Z,3528.00
2018-08-16T05:58:22.111Z,3556.00
2018-08-16T05:59:22.187Z,3580.00
2018-08-16T06:00:22.445Z,3604.00
2018-08-16T06:01:22.629Z,3632.00
2018-08-16T06:02:22.808Z,3668.00
2018-08-16T06:03:27.709Z,3696.00
2018-08-16T06:04:25.470Z,3720.00
2018-08-16T06:05:23.273Z,3744.00
2018-08-16T06:06:23.395Z,3768.00
2018-08-16T06:07:23.639Z,3800.00
2018-08-16T06:08:23.815Z,3816.00
2018-08-16T06:09:24.018Z,3848.00
2018-08-16T06:10:24.109Z,3876.00
2018-08-16T06:11:24.177Z,3912.00
2018-08-16T06:12:24.505Z,3944.00
2018-08-16T06:13:24.770Z,3972.00
2018-08-16T06:14:24.856Z,4004.00
2018-08-16T06:15:25.002Z,4040.00
2018-08-16T06:16:25.239Z,4068.00
2018-08-16T06:17:25.208Z,4096.00
2018-08-16T06:18:25.473Z,4128.00
2018-08-16T06:19:25.659Z,4164.00
2018-08-16T06:20:25.803Z,4188.00
2018-08-16T06:21:26.051Z,4216.00
2018-08-16T06:22:26.144Z,4232.00
2018-08-16T06:23:26.327Z,4264.00
2018-08-16T06:24:26.463Z,4284.00
2018-08-16T06:25:26.629Z,4324.00
2018-08-16T06:26:26.890Z,4356.00
2018-08-16T06:27:26.967Z,4360.00
2018-08-16T06:28:27.978Z,4392.00
2018-08-16T06:29:27.219Z,4424.00
2018-08-16T06:30:27.374Z,4456.00
2018-08-16T06:31:27.713Z,4484.00
2018-08-16T06:32:27.874Z,4512.00
2018-08-16T06:33:28.061Z,4536.00
2018-08-16T06:34:28.045Z,4584.00
2018-08-16T06:35:28.309Z,4612.00
2018-08-16T06:36:28.401Z,4628.00
2018-08-16T06:37:28.522Z,4656.00
2018-08-16T06:38:29.027Z,4688.00
2018-08-16T06:39:28.951Z,4728.00
2018-08-16T06:40:29.126Z,4756.00
2018-08-16T06:41:29.273Z,4796.00
2018-08-16T06:42:29.377Z,4820.00
2018-08-16T06:43:29.585Z,4844.00
2018-08-16T06:44:29.833Z,4872.00
2018-08-16T06:45:29.994Z,4904.00
2018-08-16T06:46:30.088Z,4940.00
2018-08-16T06:47:30.356Z,4972.00
2018-08-16T06:48:30.599Z,5004.00
2018-08-16T06:49:30.666Z,5036.00
2018-08-16T06:50:30.949Z,5068.00
2018-08-16T06:51:31.003Z,5100.00
2018-08-16T06:52:31.197Z,5132.00
2018-08-16T06:53:31.378Z,5168.00
2018-08-16T06:54:31.487Z,5196.00
2018-08-16T06:55:31.747Z,5236.00
2018-08-16T06:56:31.815Z,5272.00
2018-08-16T06:57:32.098Z,5304.00
2018-08-16T06:58:32.240Z,5344.00
2018-08-16T06:59:32.385Z,5376.00
2018-08-16T07:00:32.570Z,5412.00
2018-08-16T07:01:32.682Z,5452.00
2018-08-16T07:02:32.953Z,5480.00
2018-08-16T07:03:33.144Z,5508.00
2018-08-16T07:04:33.300Z,5544.00
2018-08-16T07:05:33.501Z,5572.00
2018-08-16T07:06:33.640Z,5596.00
2018-08-16T07:07:33.822Z,5628.00
2018-08-16T07:08:34.061Z,5664.00
2018-08-16T07:09:34.197Z,5700.00
2018-08-16T07:10:34.362Z,5736.00
2018-08-16T07:11:35.361Z,5768.00
2018-08-16T07:12:34.684Z,5792.00
2018-08-16T07:13:34.821Z,5828.00
2018-08-16T07:14:34.958Z,5864.00
2018-08-16T07:15:35.063Z,5896.00
2018-08-16T07:16:35.319Z,5932.00
2018-08-16T07:17:35.594Z,5964.00
2018-08-16T07:18:35.572Z,5992.00
2018-08-16T07:19:35.865Z,6020.00
2018-08-16T07:20:35.975Z,6052.00
2018-08-16T07:21:36.211Z,6080.00
2018-08-16T07:22:36.380Z,6112.00
2018-08-16T07:23:36.496Z,6144.00
2018-08-16T07:24:36.648Z,6172.00
2018-08-16T07:25:36.805Z,6204.00
2018-08-16T07:26:37.015Z,6236.00
2018-08-16T07:27:37.190Z,6268.00
2018-08-16T07:28:37.370Z,6308.00
2018-08-16T07:29:37.545Z,6352.00
2018-08-16T07:30:37.699Z,6392.00
2018-08-16T07:31:37.853Z,6440.00
2018-08-16T07:32:37.991Z,6476.00
2018-08-16T07:33:38.206Z,6520.00
2018-08-16T07:34:38.458Z,6568.00
2018-08-16T07:35:38.559Z,6616.00
2018-08-16T07:36:38.665Z,6648.00
2018-08-16T07:37:38.954Z,6684.00
2018-08-16T07:38:39.307Z,6728.00
2018-08-16T07:39:39.279Z,6760.00
2018-08-16T07:40:39.510Z,6796.00
2018-08-16T07:41:39.599Z,6828.00
2018-08-16T07:42:39.968Z,6860.00
2018-08-16T07:43:40.031Z,6892.00
2018-08-16T07:44:40.224Z,6916.00
2018-08-16T07:45:40.392Z,6948.00
2018-08-16T07:46:40.481Z,6996.00
2018-08-16T07:47:40.695Z,7036.00
2018-08-16T07:48:40.799Z,7076.00
2018-08-16T07:49:41.066Z,7124.00
2018-08-16T07:50:41.090Z,7160.00
2018-08-16T07:51:41.385Z,7200.00
2018-08-16T07:52:41.648Z,7268.00
2018-08-16T07:53:41.599Z,7360.00
2018-08-16T07:54:41.876Z,7500.00
2018-08-16T07:55:41.983Z,7588.00
2018-08-16T07:56:42.169Z,7660.00
2018-08-16T07:57:42.365Z,7716.00
2018-08-16T07:58:42.513Z,7772.00
2018-08-16T07:59:42.641Z,7844.00
2018-08-16T08:00:42.903Z,7908.00
2018-08-16T08:01:43.031Z,7972.00
2018-08-16T08:02:43.137Z,8040.00
2018-08-16T08:03:43.351Z,8124.00
2018-08-16T08:04:43.533Z,8196.00
2018-08-16T08:05:43.685Z,8280.00
2018-08-16T08:06:43.885Z,8352.00
2018-08-16T08:07:44.167Z,8424.00
2018-08-16T08:08:44.275Z,8476.00
2018-08-16T08:09:44.433Z,8512.00
2018-08-16T08:10:44.584Z,8548.00
2018-08-16T08:11:44.781Z,8600.00
2018-08-16T08:12:44.956Z,8656.00
2018-08-16T08:13:45.104Z,8700.00
2018-08-16T08:14:45.338Z,8740.00
2018-08-16T08:15:46.271Z,8780.00
2018-08-16T08:16:45.672Z,8852.00
2018-08-16T08:17:45.891Z,8920.00
2018-08-16T08:18:46.101Z,8976.00
2018-08-16T08:19:46.196Z,9056.00
2018-08-16T08:20:46.370Z,9124.00
2018-08-16T08:21:46.465Z,9212.00
2018-08-16T08:22:46.737Z,9296.00
2018-08-16T08:23:46.910Z,9412.00
2018-08-16T08:24:47.014Z,9512.00
2018-08-16T08:25:47.260Z,9604.00
2018-08-16T08:26:47.410Z,9720.00
2018-08-16T08:27:47.623Z,9860.00
2018-08-16T08:28:47.801Z,10028.00
2018-08-16T08:29:48.006Z,10156.00
2018-08-16T08:30:48.226Z,10232.00
2018-08-16T08:31:48.537Z,10420.00
2018-08-16T08:32:48.618Z,10544.00
2018-08-16T08:33:48.692Z,10644.00
2018-08-16T08:34:48.868Z,10700.00
2018-08-16T08:35:49.091Z,11064.00
2018-08-16T08:36:49.366Z,11288.00
2018-08-16T08:37:49.446Z,11056.00
2018-08-16T08:38:49.780Z,10584.00
2018-08-16T08:39:50.042Z,10500.00
2018-08-16T08:40:52.065Z,10772.00
2018-08-16T08:41:51.817Z,11536.00
2018-08-16T08:42:50.226Z,12192.00
2018-08-16T08:43:50.591Z,12512.00
2018-08-16T08:44:50.625Z,12948.00
2018-08-16T08:45:51.013Z,13048.00
2018-08-16T08:46:51.112Z,13244.00
2018-08-16T08:47:51.326Z,13628.00
2018-08-16T08:48:51.481Z,13920.00
2018-08-16T08:49:51.650Z,13456.00
2018-08-16T08:50:52.009Z,12976.00
2018-08-16T08:51:52.063Z,13504.00
2018-08-16T08:52:52.186Z,15072.00
2018-08-16T08:53:52.497Z,15200.00
2018-08-16T08:54:52.517Z,12388.00
2018-08-16T08:55:53.258Z,9912.00
2018-08-16T08:56:52.924Z,9148.00
2018-08-16T08:57:53.072Z,9112.00
2018-08-16T08:58:53.228Z,9064.00
2018-08-16T08:59:53.495Z,9024.00
2018-08-16T09:00:53.665Z,8984.00
2018-08-16T09:01:53.814Z,8976.00
2018-08-16T09:02:53.887Z,8984.00
2018-08-16T09:03:54.056Z,9000.00
2018-08-16T09:04:54.205Z,9004.00
2018-08-16T09:05:54.468Z,9020.00
2018-08-16T09:06:54.590Z,9008.00
2018-08-16T09:07:54.885Z,9024.00
2018-08-16T09:08:55.024Z,9008.00
2018-08-16T09:09:55.270Z,9000.00
2018-08-16T09:10:55.377Z,8980.00
2018-08-16T09:11:55.657Z,8984.00
2018-08-16T09:12:55.769Z,8920.00
2018-08-16T09:13:55.977Z,8884.00
2018-08-16T09:14:56.107Z,8864.00
2018-08-16T09:15:56.328Z,8880.00
2018-08-16T09:16:56.485Z,8896.00
2018-08-16T09:17:56.550Z,8960.00
2018-08-16T09:18:56.738Z,9012.00
2018-08-16T09:19:57.074Z,9068.00
2018-08-16T09:20:57.098Z,9136.00
2018-08-16T09:21:57.284Z,9184.00
2018-08-16T09:22:57.403Z,9228.00
2018-08-16T09:23:57.687Z,9324.00
2018-08-16T09:24:57.872Z,10668.00
2018-08-16T09:25:58.032Z,19456.00
2018-08-16T09:26:58.124Z,25344.00
2018-08-16T09:27:58.351Z,25792.00
2018-08-16T09:28:58.544Z,25792.00
2018-08-16T09:29:58.631Z,26656.00
2018-08-16T09:30:58.901Z,27872.00
2018-08-16T09:31:59.091Z,28576.00
2018-08-16T09:32:59.323Z,29312.00
2018-08-16T09:33:59.402Z,29280.00
2018-08-16T09:34:59.578Z,29184.00
2018-08-16T09:35:59.824Z,30592.00
2018-08-16T09:36:59.901Z,30400.00
2018-08-16T09:38:00.128Z,30848.00
2018-08-16T09:39:00.306Z,32352.00
2018-08-16T09:40:00.434Z,32480.00
2018-08-16T09:41:00.725Z,32352.00
2018-08-16T09:42:00.804Z,32832.00
2018-08-16T09:43:00.956Z,33664.00
2018-08-16T09:44:01.133Z,34208.00
2018-08-16T09:45:01.427Z,33792.00
2018-08-16T09:46:01.611Z,33248.00
2018-08-16T09:47:01.810Z,34176.00
2018-08-16T09:48:01.918Z,34816.00
2018-08-16T09:49:02.159Z,34208.00
2018-08-16T09:50:02.285Z,34848.00
2018-08-16T09:51:02.437Z,36000.00
2018-08-16T09:52:02.592Z,36832.00
2018-08-16T09:53:02.780Z,37056.00
2018-08-16T09:54:03.011Z,38592.00
2018-08-16T09:55:03.055Z,38880.00
2018-08-16T09:56:03.320Z,38688.00
2018-08-16T09:57:03.459Z,38688.00
2018-08-16T09:58:03.672Z,40128.00
2018-08-16T09:59:03.950Z,40992.00
2018-08-16T10:00:04.030Z,41536.00
2018-08-16T10:01:04.170Z,42816.00
2018-08-16T10:02:04.430Z,44736.00
2018-08-16T10:03:04.582Z,45856.00
2018-08-16T10:04:04.737Z,45984.00
2018-08-16T10:05:04.941Z,45248.00
2018-08-16T10:06:05.121Z,44544.00
2018-08-16T10:07:05.918Z,43232.00
2018-08-16T10:08:05.397Z,46432.00
2018-08-16T10:09:05.628Z,46624.00
2018-08-16T10:10:05.812Z,43904.00
2018-08-16T10:11:05.968Z,43840.00
2018-08-16T10:12:06.097Z,46432.00
2018-08-16T10:13:06.320Z,47360.00
2018-08-16T10:14:06.558Z,45600.00
2018-08-16T10:15:06.690Z,44672.00
2018-08-16T10:16:06.964Z,44864.00
2018-08-16T10:17:07.014Z,46464.00
2018-08-16T10:18:07.234Z,48192.00
2018-08-16T10:19:07.320Z,48768.00
2018-08-16T10:20:07.587Z,49472.00
2018-08-16T10:21:07.682Z,49760.00
2018-08-16T10:22:07.871Z,51008.00
2018-08-16T10:23:08.128Z,51328.00
2018-08-16T10:24:08.470Z,50656.00
2018-08-16T10:25:08.609Z,50016.00
2018-08-16T10:26:08.711Z,50208.00
2018-08-16T10:27:08.996Z,52768.00
2018-08-16T10:28:09.035Z,54464.00
2018-08-16T10:29:09.209Z,53344.00
2018-08-16T10:30:09.423Z,50464.00
2018-08-16T10:31:09.645Z,49568.00
2018-08-16T10:32:09.738Z,52576.00
2018-08-16T10:33:10.098Z,54144.00
2018-08-16T10:34:10.249Z,54112.00
2018-08-16T10:35:10.410Z,54080.00
2018-08-16T10:36:10.498Z,56064.00
2018-08-16T10:37:10.881Z,56608.00
2018-08-16T10:38:10.958Z,54784.00
2018-08-16T10:39:11.191Z,56128.00
2018-08-16T10:40:11.414Z,58624.00
2018-08-16T10:41:11.424Z,59200.00
2018-08-16T10:42:11.650Z,60224.00
2018-08-16T10:43:11.852Z,61728.00
2018-08-16T10:44:12.137Z,59776.00
2018-08-16T10:45:12.188Z,58912.00
2018-08-16T10:46:12.391Z,58880.00
2018-08-16T10:47:12.502Z,57568.00
2018-08-16T10:48:12.776Z,56032.00
2018-08-16T10:49:12.984Z,57248.00
2018-08-16T10:50:13.152Z,61536.00
2018-08-16T10:51:13.280Z,61280.00
2018-08-16T10:52:13.426Z,59168.00
2018-08-16T10:53:13.692Z,56288.00
2018-08-16T10:54:13.824Z,55616.00
2018-08-16T10:55:13.920Z,57216.00
2018-08-16T10:56:14.132Z,58752.00
2018-08-16T10:57:14.388Z,56928.00
2018-08-16T10:58:14.612Z,58624.00
2018-08-16T10:59:14.735Z,56448.00
2018-08-16T11:00:15.043Z,56928.00
2018-08-16T11:01:15.045Z,58272.00
2018-08-16T11:02:15.233Z,59296.00
2018-08-16T11:03:15.344Z,61024.00
2018-08-16T11:04:15.629Z,63040.00
2018-08-16T11:05:15.855Z,63200.00
2018-08-16T11:06:15.948Z,64640.00
2018-08-16T11:07:16.281Z,65088.00
2018-08-16T11:08:16.373Z,65376.00
2018-08-16T11:09:17.303Z,65376.00
2018-08-16T11:10:17.007Z,67648.00
2018-08-16T11:11:16.912Z,68032.00
2018-08-16T11:12:17.085Z,63392.00
2018-08-16T11:13:17.204Z,58688.00
2018-08-16T11:14:17.442Z,61664.00
2018-08-16T11:15:17.676Z,67744.00
2018-08-16T11:16:18.425Z,68736.00
2018-08-16T11:17:18.096Z,68640.00
2018-08-16T11:18:18.313Z,70144.00
2018-08-16T11:19:18.459Z,70048.00
2018-08-16T11:20:18.635Z,66240.00
2018-08-16T11:21:18.898Z,64320.00
2018-08-16T11:22:18.960Z,68768.00
2018-08-16T11:23:19.087Z,69888.00
2018-08-16T11:24:19.357Z,68160.00
2018-08-16T11:25:19.485Z,68384.00
2018-08-16T11:26:19.672Z,69184.00
2018-08-16T11:27:19.813Z,68096.00
2018-08-16T11:28:20.053Z,68256.00
2018-08-16T11:29:20.175Z,70976.00
2018-08-16T11:30:20.410Z,72128.00
2018-08-16T11:31:20.526Z,72512.00
2018-08-16T11:32:20.769Z,71200.00
2018-08-16T11:33:21.398Z,70592.00
2018-08-16T11:34:21.532Z,69088.00
2018-08-16T11:35:21.966Z,65920.00
2018-08-16T11:36:22.337Z,67264.00
2018-08-16T11:37:22.139Z,71552.00
2018-08-16T11:38:21.846Z,72736.00
2018-08-16T11:39:22.245Z,71744.00
2018-08-16T11:40:22.332Z,72480.00
2018-08-16T11:41:22.539Z,72320.00
2018-08-16T11:42:22.677Z,70336.00
2018-08-16T11:43:22.850Z,69760.00
2018-08-16T11:44:23.254Z,69984.00
2018-08-16T11:45:23.369Z,66752.00
2018-08-16T11:46:23.522Z,66016.00
2018-08-16T11:47:23.735Z,70208.00
2018-08-16T11:48:24.055Z,73280.00
2018-08-16T11:49:24.239Z,73728.00
2018-08-16T11:50:24.358Z,69600.00
2018-08-16T11:51:24.505Z,71872.00
2018-08-16T11:52:24.762Z,73536.00
2018-08-16T11:53:25.010Z,73344.00
2018-08-16T11:54:24.970Z,73344.00
2018-08-16T11:55:25.337Z,75104.00
2018-08-16T11:56:25.361Z,74688.00
2018-08-16T11:57:29.702Z,75072.00
2018-08-16T11:58:26.315Z,75456.00
2018-08-16T11:59:26.270Z,78816.00
2018-08-16T12:00:27.404Z,80832.00
2018-08-16T12:01:26.472Z,79200.00
2018-08-16T12:02:26.456Z,78208.00
2018-08-16T12:03:28.106Z,78240.00
2018-08-16T12:04:27.118Z,78176.00
2018-08-16T12:05:27.443Z,78208.00
2018-08-16T12:06:27.523Z,79904.00
2018-08-16T12:07:27.464Z,81536.00
2018-08-16T12:08:27.612Z,81760.00
2018-08-16T12:09:28.590Z,81632.00
2018-08-16T12:10:28.039Z,80000.00
2018-08-16T12:11:28.960Z,77120.00
2018-08-16T12:12:28.467Z,77344.00
2018-08-16T12:13:28.657Z,83360.00
2018-08-16T12:14:28.892Z,84160.00
2018-08-16T12:15:29.045Z,79968.00
2018-08-16T12:16:29.141Z,77696.00
2018-08-16T12:17:29.827Z,78240.00
2018-08-16T12:18:31.281Z,75904.00
2018-08-16T12:19:50.578Z,75744.00
2018-08-16T12:20:41.355Z,75776.00
2018-08-16T12:21:45.098Z,76384.00
2018-08-16T12:23:37.326Z,74304.00
2018-08-16T12:27:34.856Z,80032.00
2018-08-16T12:28:08.855Z,77120.00
2018-08-16T12:34:46.198Z,81952.00
2018-08-16T12:40:02.119Z,85536.00
2018-08-16T12:41:38.256Z,87424.00
2018-08-16T12:43:48.641Z,83040.00
2018-08-16T12:45:26.038Z,82880.00
2018-08-16T12:46:30.411Z,86016.00
2018-08-16T12:47:27.519Z,83136.00
2018-08-16T12:48:27.440Z,76512.00
2018-08-16T12:49:32.142Z,71808.00
2018-08-16T12:50:38.794Z,70432.00
2018-08-16T12:51:40.611Z,73280.00
2018-08-16T12:53:54.624Z,75456.00
2018-08-16T12:59:16.119Z,73856.00
2018-08-16T13:00:04.798Z,77632.00
2018-08-16T13:01:27.627Z,78688.00
2018-08-16T13:03:12.141Z,73920.00
2018-08-16T13:04:02.970Z,74912.00
2018-08-16T13:06:39.601Z,83456.00
2018-08-16T13:10:12.311Z,74176.00
2018-08-16T13:12:13.368Z,74176.00
2018-08-16T13:13:11.989Z,75008.00
2018-08-16T13:14:09.350Z,75776.00
2018-08-16T13:15:10.279Z,77376.00
2018-08-16T13:21:13.259Z,70400.00
2018-08-16T13:23:21.133Z,69408.00
2018-08-16T13:24:59.470Z,62016.00
2018-08-16T13:26:26.555Z,65120.00
2018-08-16T13:27:08.222Z,69280.00
2018-08-16T13:27:50.215Z,73280.00
2018-08-16T13:28:50.698Z,73120.00
2018-08-16T13:29:48.579Z,73664.00
2018-08-16T13:30:47.574Z,74400.00
2018-08-16T13:31:48.412Z,72032.00
2018-08-16T13:32:47.912Z,76224.00
2018-08-16T13:33:48.195Z,79680.00
2018-08-16T13:34:48.288Z,77440.00
2018-08-16T13:35:48.561Z,75552.00
2018-08-16T13:36:48.913Z,74176.00
2018-08-16T13:37:48.963Z,73952.00
2018-08-16T13:38:48.899Z,74976.00
2018-08-16T13:39:50.079Z,75200.00
2018-08-16T13:40:50.144Z,71040.00
2018-08-16T13:41:50.968Z,72800.00
2018-08-16T13:42:50.556Z,67776.00
2018-08-16T13:44:00.846Z,72672.00
2018-08-16T13:44:52.356Z,75072.00
2018-08-16T13:45:51.137Z,77056.00
2018-08-16T13:46:57.972Z,76608.00
2018-08-16T13:47:51.338Z,77216.00
2018-08-16T13:48:51.545Z,78880.00
2018-08-16T13:49:54.629Z,79680.00
2018-08-16T13:50:54.841Z,78912.00
2018-08-16T13:51:52.570Z,74912.00
2018-08-16T13:52:54.236Z,74400.00
2018-08-16T13:53:57.640Z,74272.00
2018-08-16T13:54:53.487Z,67392.00
2018-08-16T13:55:52.427Z,66688.00
2018-08-16T13:56:56.491Z,75904.00
2018-08-16T14:07:23.658Z,69248.00
2018-08-16T14:08:58.446Z,70816.00
2018-08-16T14:31:21.547Z,65184.00
2018-08-16T14:36:22.282Z,70048.00
2018-08-16T14:36:50.206Z,74112.00
2018-08-16T14:40:34.664Z,72576.00
2018-08-16T14:42:15.642Z,75328.00
2018-08-16T14:45:55.102Z,74880.00
2018-08-16T14:52:14.306Z,63328.00
2018-08-16T14:53:11.976Z,66016.00
2018-08-16T14:54:12.648Z,70048.00
2018-08-16T14:55:15.644Z,72608.00
2018-08-16T14:56:11.728Z,74528.00
2018-08-16T14:57:10.030Z,70176.00
2018-08-16T14:58:09.925Z,68672.00
2018-08-16T14:59:09.997Z,71552.00
2018-08-16T15:00:10.374Z,73024.00
2018-08-16T15:01:10.673Z,64608.00
2018-08-16T15:02:10.904Z,56352.00
2018-08-16T15:03:10.864Z,55968.00
2018-08-16T15:04:11.206Z,53120.00
2018-08-16T15:05:11.029Z,54176.00
2018-08-16T15:06:11.150Z,51648.00
2018-08-16T15:07:11.427Z,47968.00
2018-08-16T15:08:11.855Z,45408.00
2018-08-16T15:09:11.623Z,51904.00
2018-08-16T15:10:12.065Z,57024.00
2018-08-16T15:11:12.544Z,47712.00
2018-08-16T15:12:12.463Z,34080.00
2018-08-16T15:13:12.735Z,45632.00
2018-08-16T15:14:12.932Z,57952.00
2018-08-16T15:15:13.045Z,43872.00
2018-08-16T15:16:13.061Z,28032.00
2018-08-16T15:17:13.558Z,28480.00
2018-08-16T15:18:13.533Z,32960.00
2018-08-16T15:19:13.733Z,34432.00
2018-08-16T15:20:13.944Z,25536.00
2018-08-16T15:21:14.372Z,27392.00
2018-08-16T15:22:14.120Z,36096.00
2018-08-16T15:23:14.936Z,35488.00
2018-08-16T15:24:15.467Z,34432.00
2018-08-16T15:25:14.733Z,32448.00
2018-08-16T15:26:14.970Z,31424.00
2018-08-16T15:27:15.211Z,29824.00
2018-08-16T15:28:15.275Z,29920.00
2018-08-16T15:29:15.428Z,30112.00
2018-08-16T15:30:15.632Z,28288.00
2018-08-16T15:31:15.887Z,27392.00
2018-08-16T15:32:16.334Z,29184.00
2018-08-16T15:33:16.532Z,27584.00
2018-08-16T15:34:16.580Z,24160.00
2018-08-16T15:35:17.149Z,24960.00
2018-08-16T15:36:16.882Z,24736.00
2018-08-16T15:37:17.506Z,23584.00
2018-08-16T15:38:17.404Z,26016.00
2018-08-16T15:39:17.541Z,25920.00
2018-08-16T15:40:17.646Z,22400.00
2018-08-16T15:41:18.197Z,22272.00
2018-08-16T15:42:18.284Z,26144.00
2018-08-16T15:43:18.824Z,31808.00
2018-08-16T15:44:18.845Z,34208.00
2018-08-16T15:45:18.558Z,30912.00
2018-08-16T15:46:18.975Z,33856.00
2018-08-16T15:47:22.214Z,43040.00
2018-08-16T15:48:19.572Z,50784.00
2018-08-16T15:49:19.321Z,48160.00
2018-08-16T15:50:19.661Z,43488.00
2018-08-16T15:51:21.975Z,44608.00
2018-08-16T15:52:21.736Z,44544.00
2018-08-16T15:53:41.055Z,43776.00
2018-08-16T15:59:21.971Z,22080.00
2018-08-16T16:11:53.716Z,6316.00
2018-08-16T16:14:41.790Z,6276.00
2018-08-16T16:27:13.289Z,5376.00
2018-08-16T16:27:36.827Z,5256.00
2018-08-16T16:28:37.649Z,5304.00
2018-08-16T16:30:13.600Z,5400.00
2018-08-16T17:00:01.911Z,3988.00
2018-08-16T17:01:18.962Z,3920.00
2018-08-16T17:01:47.796Z,4060.00
2018-08-16T17:04:25.299Z,3692.00
2018-08-16T17:07:53.115Z,3568.00
2018-08-16T17:08:53.001Z,3512.00
2018-08-16T17:09:50.554Z,3468.00
2018-08-16T17:11:47.702Z,3428.00
2018-08-16T17:12:48.494Z,3408.00
2018-08-16T17:19:24.856Z,3180.00
2018-08-16T17:21:12.917Z,3160.00
2018-08-16T17:21:25.111Z,3128.00
2018-08-16T17:26:10.856Z,2976.00
2018-08-16T17:27:20.533Z,2928.00
2018-08-16T17:32:56.688Z,2812.00
2018-08-16T17:35:05.261Z,2744.00
2018-08-16T17:36:00.692Z,2708.00
2018-08-16T17:36:54.208Z,2672.00
2018-08-16T17:37:55.709Z,2640.00
2018-08-16T17:38:55.499Z,2608.00
2018-08-16T17:40:03.201Z,2572.00
2018-08-16T17:41:02.147Z,2536.00
2018-08-16T17:41:54.952Z,2504.00
2018-08-16T17:44:57.212Z,2416.00
2018-08-16T17:45:57.041Z,2380.00
2018-08-16T17:47:55.336Z,2316.00
2018-08-16T17:48:53.956Z,2276.00
2018-08-16T17:49:53.707Z,2240.00
2018-08-16T17:50:53.419Z,2204.00
2018-08-16T17:51:53.944Z,2168.00
2018-08-16T17:52:54.051Z,2136.00
2018-08-16T17:53:54.431Z,2104.00
2018-08-16T17:54:54.206Z,2072.00
2018-08-16T17:55:54.658Z,2044.00
2018-08-16T17:56:54.804Z,2012.00
2018-08-16T17:57:55.441Z,1980.00
2018-08-16T17:58:54.779Z,1952.00
2018-08-16T17:59:55.048Z,1920.00
2018-08-16T18:00:55.600Z,1888.00
2018-08-16T18:01:55.367Z,1848.00
2018-08-16T18:02:55.871Z,1812.00
2018-08-16T18:03:55.983Z,1772.00
2018-08-16T18:04:56.346Z,1728.00
2018-08-16T18:05:56.079Z,1684.00
2018-08-16T18:06:56.460Z,1644.00
2018-08-16T18:07:56.538Z,1600.00
2018-08-16T18:08:56.745Z,1552.00
2018-08-16T18:09:56.935Z,1508.00
2018-08-16T18:10:57.308Z,1460.00
2018-08-16T18:11:57.479Z,1420.00
2018-08-16T18:12:57.695Z,1372.00
2018-08-16T18:13:57.860Z,1324.00
2018-08-16T18:14:58.010Z,1276.00
2018-08-16T18:15:58.071Z,1228.00
2018-08-16T18:16:58.795Z,1176.00
2018-08-16T18:17:59.284Z,1128.00
2018-08-16T18:19:00.754Z,1076.00
2018-08-16T18:20:04.994Z,1028.00
2018-08-16T18:20:59.585Z,976.00
2018-08-16T18:21:59.559Z,920.00
